Sevilla Aeropuerto en Andalucia

latitud = 37° 25' 00''N | longitud = 005° 52' 45''W
34 metros sobre el nivel del mar |

Fecha, hora, temperatura, viento dirección y velocidad, humedad y presión.

  • 16-07-2018 13:00:00 | 27.00°C | Oeste |10.00 km/h | 43.00% | 1016.70 hPa
  • 16-07-2018 12:00:00 | 25.40°C | Nordeste |3.00 km/h | 52.00% | 1016.80 hPa
  • 16-07-2018 11:00:00 | 23.50°C | Norte |5.00 km/h | 61.00% | 1016.80 hPa
  • 16-07-2018 10:00:00 | 22.10°C | Nordeste |10.00 km/h | 66.00% | 1017.00 hPa
  • 16-07-2018 09:00:00 | 19.70°C | Norte |4.00 km/h | 75.00% | 1016.80 hPa
  • 16-07-2018 08:00:00 | 17.20°C | Calma |0.00 km/h | 89.00% | 1016.50 hPa
  • 16-07-2018 07:00:00 | 16.50°C | Sudeste |7.00 km/h | 90.00% | 1016.30 hPa
  • 16-07-2018 06:00:00 | 17.50°C | Calma |0.00 km/h | 87.00% | 1016.20 hPa
  • 16-07-2018 05:00:00 | 18.30°C | Sudoeste |7.00 km/h | 82.00% | 1016.30 hPa
  • 16-07-2018 04:00:00 | 18.60°C | Calma |0.00 km/h | 85.00% | 1016.10 hPa
  • 16-07-2018 03:00:00 | 19.40°C | Sudoeste |8.00 km/h | 85.00% | 1016.50 hPa
  • 16-07-2018 02:00:00 | 19.60°C | Sur |15.00 km/h | 85.00% | 1016.70 hPa
  • 16-07-2018 01:00:00 | 20.10°C | Sur |12.00 km/h | 83.00% | 1016.50 hPa
  • 16-07-2018 00:00:00 | 20.80°C | Sudoeste |13.00 km/h | 78.00% | 1016.60 hPa
  • 15-07-2018 23:00:00 | 21.40°C | Sudoeste |22.00 km/h | 74.00% | 1016.20 hPa
  • 15-07-2018 22:00:00 | 22.50°C | Sudoeste |18.00 km/h | 66.00% | 1015.10 hPa
  • 15-07-2018 21:00:00 | 24.30°C | Sudoeste |19.00 km/h | 52.00% | 1014.60 hPa
  • 15-07-2018 20:00:00 | 25.10°C | Sudoeste |31.00 km/h | 51.00% | 1014.30 hPa
  • 15-07-2018 19:00:00 | 26.40°C | Sudoeste |34.00 km/h | 48.00% | 1014.40 hPa
  • 15-07-2018 18:00:00 | 27.20°C | Sudoeste |28.00 km/h | 43.00% | 1014.40 hPa
  • 15-07-2018 17:00:00 | 27.50°C | Sudoeste |28.00 km/h | 42.00% | 1014.60 hPa
  • 15-07-2018 16:00:00 | 27.60°C | Sudoeste |15.00 km/h | 38.00% | 1015.00 hPa
  • 15-07-2018 15:00:00 | 26.50°C | Sudoeste |15.00 km/h | 44.00% | 1015.50 hPa
  • 15-07-2018 14:00:00 | 25.50°C | Oeste |12.00 km/h | 48.00% | 1015.90 hPa
    • Datos gráficos mensuales de Sevilla Aeropuerto: